Time;durP1;ratioP1;P1;durP2;ratioP2;P2;SDS_P1;SDS_P2;PMS_P1;PMS_P2;Temp;Humidity;BMP_temperature;BMP_pressure;BME280_temperature;BME280_humidity;BME280_pressure;Samples;Min_cycle;Max_cycle;Signal;HPM_P1;HPM_P2
2023/12/21 00:00:06;;;;;;;;;;;;;;;12.75;94.81;100733.31;7304509;19;21777;-66
2023/12/21 00:02:33;;;;;;;;;;;;;;;12.76;94.32;100733.16;7296590;19;19926;-67
2023/12/21 00:05:01;;;;;;;;;;;;;;;12.79;94.59;100719.66;7297810;19;21001;-68
2023/12/21 00:07:29;;;;;;;;;;;;;;;12.82;94.41;100710.53;7295692;19;19925;-68
2023/12/21 00:10:00;;;;;;;;;;;;;;;12.84;94.25;100719.13;7301759;19;19914;-67
2023/12/21 00:12:28;;;;;;;;;;;;;;;12.80;94.38;100702.78;7302797;19;19923;-68
2023/12/21 00:14:55;;;;;;;;;;;;;;;12.80;94.52;100686.94;7302390;19;21189;-67
2023/12/21 00:17:23;;;;;;;;;;;;;;;12.81;94.22;100691.25;7305010;19;19919;-67
2023/12/21 00:19:50;;;;;;;;;;;;;;;12.79;94.15;100692.41;7288880;19;20883;-66
2023/12/21 00:22:23;;;;;;;;;;;;;;;12.80;94.22;100688.75;7300407;19;20531;-67
2023/12/21 00:24:50;;;;;;;;;;;;;;;12.81;94.55;100672.75;7303118;19;20001;-66
2023/12/21 00:27:17;;;;;;;;;;;;;;;12.83;94.41;100669.94;7290451;19;20721;-68
2023/12/21 00:29:44;;;;;;;;;;;;;;;12.85;94.72;100665.31;7310084;19;19940;-67
2023/12/21 00:32:11;;;;;;;;;;;;;;;12.85;94.37;100652.09;7296073;19;19955;-67
2023/12/21 00:34:39;;;;;;;;;;;;;;;12.84;94.40;100640.75;7304399;19;19926;-68
2023/12/21 00:37:06;;;;;;;;;;;;;;;12.83;94.44;100638.28;7291899;19;19981;-68
2023/12/21 00:39:34;;;;;;;;;;;;;;;12.83;94.55;100628.53;7293519;19;21262;-67
2023/12/21 00:42:01;;;;;;;;;;;;;;;12.84;94.47;100632.00;7297749;19;19927;-67
2023/12/21 00:44:28;;;;;;;;;;;;;;;12.82;94.69;100624.25;7297114;19;19911;-67
2023/12/21 00:46:55;;;;;;;;;;;;;;;12.88;95.22;100622.72;7290213;19;19938;-68
2023/12/21 00:49:23;;;;;;;;;;;;;;;12.88;94.93;100624.53;7300352;19;19918;-65
2023/12/21 00:51:50;;;;;;;;;;;;;;;12.86;94.41;100622.06;7290679;19;19930;-68
2023/12/21 00:54:17;;;;;;;;;;;;;;;12.88;94.61;100619.25;7295137;19;19939;-68
2023/12/21 00:56:44;;;;;;;;;;;;;;;12.85;94.29;100623.88;7305153;19;20343;-67
2023/12/21 00:59:13;;;;;;;;;;;;;;;12.83;94.32;100617.16;7299666;19;19923;-67
2023/12/21 01:01:40;;;;;;;;;;;;;;;12.82;94.64;100604.94;7305436;19;19923;-68
2023/12/21 01:04:07;;;;;;;;;;;;;;;12.84;95.16;100602.94;7296056;19;19964;-66
2023/12/21 01:06:36;;;;;;;;;;;;;;;12.80;95.00;100607.72;7279929;19;19934;-68
2023/12/21 01:09:03;;;;;;;;;;;;;;;12.84;95.30;100587.94;7281279;19;19935;-66
2023/12/21 01:11:30;;;;;;;;;;;;;;;12.84;94.72;100581.81;7298564;19;22329;-66
2023/12/21 01:13:57;;;;;;;;;;;;;;;12.86;94.67;100583.28;7297769;19;20355;-67
2023/12/21 01:16:24;;;;;;;;;;;;;;;12.86;94.57;100595.66;7287545;19;19931;-67
2023/12/21 01:18:52;;;;;;;;;;;;;;;12.88;94.62;100579.66;7296785;19;19918;-68
2023/12/21 01:21:19;;;;;;;;;;;;;;;12.89;94.70;100565.47;7282226;19;20871;-68
2023/12/21 01:23:47;;;;;;;;;;;;;;;12.91;94.92;100563.44;7304922;19;19918;-66
2023/12/21 01:26:16;;;;;;;;;;;;;;;12.91;94.70;100556.34;7295623;19;20431;-68
2023/12/21 01:28:44;;;;;;;;;;;;;;;12.89;94.72;100553.09;7292381;19;20824;-67
2023/12/21 01:31:10;;;;;;;;;;;;;;;12.88;94.97;100561.16;7295724;19;19938;-67
2023/12/21 01:33:38;;;;;;;;;;;;;;;12.89;94.72;100568.94;7284008;19;20722;-67
2023/12/21 01:36:07;;;;;;;;;;;;;;;12.85;94.90;100557.88;7284390;19;19930;-67
2023/12/21 01:38:35;;;;;;;;;;;;;;;12.86;94.94;100559.50;7289852;19;19929;-67
2023/12/21 01:41:02;;;;;;;;;;;;;;;12.90;95.23;100554.69;7307287;19;20902;-66
2023/12/21 01:43:28;;;;;;;;;;;;;;;12.91;95.61;100537.88;7306363;19;19922;-67
2023/12/21 01:45:57;;;;;;;;;;;;;;;12.93;95.28;100548.25;7283079;19;19990;-68
2023/12/21 01:48:26;;;;;;;;;;;;;;;12.92;94.89;100538.69;7289950;19;19923;-68
2023/12/21 01:50:54;;;;;;;;;;;;;;;12.93;95.01;100538.53;7292907;19;19926;-66
2023/12/21 01:53:22;;;;;;;;;;;;;;;12.91;95.10;100527.31;7299664;19;20502;-67
2023/12/21 01:55:49;;;;;;;;;;;;;;;12.92;95.11;100521.03;7301644;19;20728;-68
2023/12/21 01:58:17;;;;;;;;;;;;;;;12.92;94.95;100525.50;7294676;19;19918;-68
2023/12/21 02:00:44;;;;;;;;;;;;;;;12.94;95.23;100520.88;7296641;19;21139;-67
2023/12/21 02:03:11;;;;;;;;;;;;;;;12.94;95.08;100526.16;7298729;19;19918;-66
2023/12/21 02:05:38;;;;;;;;;;;;;;;12.96;94.74;100513.56;7290839;19;19927;-66
2023/12/21 02:08:05;;;;;;;;;;;;;;;12.99;94.32;100529.91;7293186;19;19927;-68
2023/12/21 02:10:32;;;;;;;;;;;;;;;13.02;95.52;100520.78;7288477;19;19929;-69
2023/12/21 02:13:00;;;;;;;;;;;;;;;13.01;94.59;100527.06;7310157;19;19925;-68
2023/12/21 02:15:27;;;;;;;;;;;;;;;13.01;93.95;100519.16;7297970;19;20481;-68
2023/12/21 02:17:56;;;;;;;;;;;;;;;13.03;93.94;100519.81;7298027;19;19919;-68
2023/12/21 02:20:23;;;;;;;;;;;;;;;13.05;94.01;100502.78;7289371;19;19998;-67
2023/12/21 02:22:50;;;;;;;;;;;;;;;13.07;93.91;100492.84;7296499;19;19915;-67
2023/12/21 02:25:18;;;;;;;;;;;;;;;13.05;93.75;100486.13;7298981;19;19986;-68
2023/12/21 02:27:51;;;;;;;;;;;;;;;13.02;93.85;100474.06;7296119;19;21592;-66
2023/12/21 02:30:19;;;;;;;;;;;;;;;13.07;93.44;100482.28;7285853;19;19933;-67
2023/12/21 02:32:46;;;;;;;;;;;;;;;13.05;93.11;100478.19;7292852;19;19923;-67
2023/12/21 02:35:15;;;;;;;;;;;;;;;13.06;92.69;100472.72;7296254;19;20981;-68
2023/12/21 02:37:42;;;;;;;;;;;;;;;13.04;92.63;100453.59;7286873;19;19934;-66
2023/12/21 02:40:09;;;;;;;;;;;;;;;13.07;92.57;100465.63;7287710;19;19918;-67
2023/12/21 02:42:36;;;;;;;;;;;;;;;13.06;92.51;100458.69;7301944;19;20667;-66
2023/12/21 02:45:04;;;;;;;;;;;;;;;13.05;92.34;100449.97;7306015;19;19923;-67
2023/12/21 02:47:31;;;;;;;;;;;;;;;13.06;92.42;100448.94;7295258;19;19930;-67
2023/12/21 02:49:58;;;;;;;;;;;;;;;13.07;92.24;100442.66;7298179;19;19927;-67
2023/12/21 02:52:25;;;;;;;;;;;;;;;13.09;91.71;100419.56;7296757;19;19922;-66
2023/12/21 02:54:52;;;;;;;;;;;;;;;13.05;91.77;100430.66;7307480;19;19926;-67
2023/12/21 02:57:19;;;;;;;;;;;;;;;13.04;91.52;100434.28;7301904;19;19930;-67
2023/12/21 02:59:54;;;;;;;;;;;;;;;13.04;91.54;100442.22;7308330;19;19923;-66
2023/12/21 03:02:26;;;;;;;;;;;;;;;13.03;91.76;100441.38;7287306;19;20789;-66
2023/12/21 03:04:53;;;;;;;;;;;;;;;13.07;91.47;100455.88;7295856;19;19930;-68
2023/12/21 03:07:20;;;;;;;;;;;;;;;13.08;91.90;100454.88;7311814;19;20410;-66
2023/12/21 03:09:47;;;;;;;;;;;;;;;13.06;91.11;100442.84;7300937;19;21555;-69
2023/12/21 03:12:14;;;;;;;;;;;;;;;13.07;91.02;100436.56;7306923;19;20009;-68
2023/12/21 03:14:41;;;;;;;;;;;;;;;13.06;90.75;100437.56;7296557;19;19962;-67
2023/12/21 03:17:08;;;;;;;;;;;;;;;13.07;90.83;100420.72;7303771;19;19923;-67
2023/12/21 03:19:35;;;;;;;;;;;;;;;13.09;90.52;100422.19;7310033;19;19931;-67
2023/12/21 03:22:03;;;;;;;;;;;;;;;13.11;90.29;100414.06;7307131;19;19935;-67
2023/12/21 03:24:31;;;;;;;;;;;;;;;13.09;90.01;100398.41;7304170;19;22338;-68
2023/12/21 03:26:58;;;;;;;;;;;;;;;13.09;89.97;100387.03;7301486;19;20213;-67
2023/12/21 03:29:25;;;;;;;;;;;;;;;13.07;90.01;100376.63;7301683;19;19927;-66
2023/12/21 03:31:54;;;;;;;;;;;;;;;13.09;90.20;100373.81;7304435;19;20418;-67
2023/12/21 03:34:21;;;;;;;;;;;;;;;13.12;89.74;100370.84;7294421;19;20230;-67
2023/12/21 03:36:48;;;;;;;;;;;;;;;13.14;89.31;100368.84;7303017;19;20562;-68
2023/12/21 03:39:15;;;;;;;;;;;;;;;13.15;89.14;100362.56;7305451;19;21001;-68
2023/12/21 03:41:42;;;;;;;;;;;;;;;13.17;89.21;100365.84;7307682;19;20328;-67
2023/12/21 03:44:10;;;;;;;;;;;;;;;13.18;89.22;100359.56;7294012;19;19919;-67
2023/12/21 03:46:37;;;;;;;;;;;;;;;13.19;88.59;100342.72;7294504;19;20049;-67
2023/12/21 03:49:05;;;;;;;;;;;;;;;13.19;88.13;100342.72;7307876;19;19918;-67
2023/12/21 03:51:32;;;;;;;;;;;;;;;13.21;88.56;100354.72;7305388;19;19915;-67
2023/12/21 03:53:59;;;;;;;;;;;;;;;13.21;88.55;100364.47;7296297;19;19923;-68
2023/12/21 03:56:26;;;;;;;;;;;;;;;13.22;88.52;100347.63;7305478;19;19925;-67
2023/12/21 03:58:53;;;;;;;;;;;;;;;13.24;88.40;100356.19;7301714;19;19923;-68
2023/12/21 04:01:26;;;;;;;;;;;;;;;13.24;88.00;100359.66;7304019;19;19925;-68
2023/12/21 04:04:02;;;;;;;;;;;;;;;13.23;87.74;100381.78;7309807;19;19931;-66
2023/12/21 04:06:29;;;;;;;;;;;;;;;13.22;88.52;100374.84;7299424;19;19915;-66
2023/12/21 04:08:57;;;;;;;;;;;;;;;13.21;88.04;100367.94;7304588;19;19923;-68
2023/12/21 04:11:24;;;;;;;;;;;;;;;13.23;88.30;100354.56;7295313;19;19938;-67
2023/12/21 04:13:53;;;;;;;;;;;;;;;13.22;88.66;100334.41;7296637;19;19919;-66
2023/12/21 04:16:23;;;;;;;;;;;;;;;13.25;88.95;100350.75;7301022;19;19923;-67
2023/12/21 04:18:51;;;;;;;;;;;;;;;13.26;89.09;100346.25;7283226;19;20408;-66
2023/12/21 04:21:23;;;;;;;;;;;;;;;13.25;89.01;100332.25;7299036;19;19911;-66
2023/12/21 04:23:50;;;;;;;;;;;;;;;13.25;89.32;100313.75;7299762;19;19959;-67
2023/12/21 04:26:20;;;;;;;;;;;;;;;13.26;89.01;100311.91;7293686;19;20209;-67
2023/12/21 04:28:50;;;;;;;;;;;;;;;13.24;89.00;100304.19;7302557;19;19925;-66
2023/12/21 04:31:20;;;;;;;;;;;;;;;13.25;89.41;100305.00;7296504;19;20331;-66
2023/12/21 04:33:49;;;;;;;;;;;;;;;13.23;89.47;100276.13;7290443;19;19946;-67
2023/12/21 04:36:16;;;;;;;;;;;;;;;13.18;90.09;100275.84;7310945;19;19931;-68
2023/12/21 04:38:54;;;;;;;;;;;;;;;13.17;90.24;100271.56;7304254;19;19926;-66
2023/12/21 04:41:21;;;;;;;;;;;;;;;13.16;90.35;100285.75;7284809;19;19934;-66
2023/12/21 04:43:48;;;;;;;;;;;;;;;13.17;90.69;100286.59;7295401;19;19927;-67
2023/12/21 04:46:15;;;;;;;;;;;;;;;13.14;90.75;100263.19;7292721;19;19918;-68
2023/12/21 04:48:46;;;;;;;;;;;;;;;13.15;91.13;100254.25;7287122;19;19934;-67
2023/12/21 04:51:15;;;;;;;;;;;;;;;13.12;90.85;100247.50;7287451;19;20776;-67
2023/12/21 04:53:43;;;;;;;;;;;;;;;13.11;91.33;100230.03;7292850;19;19922;-67
2023/12/21 04:56:10;;;;;;;;;;;;;;;13.09;91.17;100236.47;7298268;19;20313;-66
2023/12/21 04:58:41;;;;;;;;;;;;;;;13.10;91.35;100246.03;7298191;19;19951;-67
2023/12/21 05:01:18;;;;;;;;;;;;;;;13.07;91.51;100260.41;7301313;19;20381;-67
2023/12/21 05:03:45;;;;;;;;;;;;;;;13.04;91.54;100265.25;7302323;19;19929;-66
2023/12/21 05:06:14;;;;;;;;;;;;;;;13.07;91.89;100286.00;7307394;19;19995;-67
2023/12/21 05:08:45;;;;;;;;;;;;;;;13.06;92.17;100279.91;7311450;19;19947;-67
2023/12/21 05:11:20;;;;;;;;;;;;;;;13.07;92.20;100275.44;7296171;19;19943;-67
2023/12/21 05:13:47;;;;;;;;;;;;;;;13.07;91.91;100244.56;7291636;19;20974;-66
2023/12/21 05:16:14;;;;;;;;;;;;;;;13.04;91.46;100242.31;7295957;19;20009;-67
2023/12/21 05:18:41;;;;;;;;;;;;;;;13.01;91.79;100242.66;7313043;19;19923;-68
2023/12/21 05:21:13;;;;;;;;;;;;;;;13.04;91.90;100229.09;7302865;19;19938;-68
2023/12/21 05:23:41;;;;;;;;;;;;;;;13.04;92.00;100228.28;7281354;19;20510;-66
2023/12/21 05:26:11;;;;;;;;;;;;;;;13.04;91.92;100226.47;7293379;19;20651;-66
2023/12/21 05:28:42;;;;;;;;;;;;;;;13.06;92.20;100244.75;7296886;19;19926;-66
2023/12/21 05:31:21;;;;;;;;;;;;;;;13.07;92.18;100246.38;7288071;19;19918;-68
2023/12/21 05:33:49;;;;;;;;;;;;;;;13.05;92.03;100232.56;7302699;19;20569;-67
2023/12/21 05:36:20;;;;;;;;;;;;;;;13.05;91.71;100233.38;7300606;19;19935;-67
2023/12/21 05:38:51;;;;;;;;;;;;;;;13.04;91.72;100226.47;7309587;19;19978;-67
2023/12/21 05:41:21;;;;;;;;;;;;;;;13.05;92.21;100230.75;7300512;19;19930;-67
2023/12/21 05:43:48;;;;;;;;;;;;;;;13.05;92.01;100235.22;7294837;19;19918;-68
2023/12/21 05:46:16;;;;;;;;;;;;;;;13.01;92.21;100241.84;7298174;19;19915;-67
2023/12/21 05:48:52;;;;;;;;;;;;;;;13.01;92.98;100229.44;7298821;19;20912;-67
2023/12/21 05:51:19;;;;;;;;;;;;;;;13.01;92.97;100231.28;7289320;19;19957;-68
2023/12/21 05:53:46;;;;;;;;;;;;;;;13.01;93.37;100224.16;7299735;19;20002;-66
2023/12/21 05:56:13;;;;;;;;;;;;;;;13.02;93.04;100235.56;7292407;19;19925;-67
2023/12/21 05:58:50;;;;;;;;;;;;;;;13.01;93.12;100258.50;7292387;19;19919;-66
2023/12/21 06:01:17;;;;;;;;;;;;;;;13.05;93.18;100251.88;7289193;19;20350;-66
2023/12/21 06:03:44;;;;;;;;;;;;;;;13.06;93.04;100256.13;7300249;19;19926;-67
2023/12/21 06:06:13;;;;;;;;;;;;;;;13.05;93.06;100259.81;7301423;19;20027;-67
2023/12/21 06:08:47;;;;;;;;;;;;;;;13.07;93.13;100262.22;7286022;19;19922;-67
2023/12/21 06:11:17;;;;;;;;;;;;;;;13.08;93.27;100262.06;7298551;19;20812;-67
2023/12/21 06:13:44;;;;;;;;;;;;;;;13.10;93.18;100249.50;7302495;19;19934;-68
2023/12/21 06:16:12;;;;;;;;;;;;;;;13.10;93.87;100231.00;7285888;19;19919;-68
2023/12/21 06:18:40;;;;;;;;;;;;;;;13.13;93.89;100198.97;7290570;19;19923;-67
2023/12/21 06:21:11;;;;;;;;;;;;;;;13.14;93.78;100190.03;7287523;19;19936;-66
2023/12/21 06:23:38;;;;;;;;;;;;;;;13.15;93.57;100175.03;7292343;19;19951;-67
2023/12/21 06:26:05;;;;;;;;;;;;;;;13.16;93.38;100156.31;7302483;19;19923;-67
2023/12/21 06:28:32;;;;;;;;;;;;;;;13.14;93.10;100154.88;7296342;19;19933;-66
2023/12/21 06:31:00;;;;;;;;;;;;;;;13.17;93.32;100146.56;7311718;19;20665;-67
2023/12/21 06:33:28;;;;;;;;;;;;;;;13.19;93.55;100158.59;7293049;19;19914;-67
2023/12/21 06:35:55;;;;;;;;;;;;;;;13.21;93.30;100155.75;7304541;19;19950;-68
2023/12/21 06:38:22;;;;;;;;;;;;;;;13.18;92.95;100153.50;7287172;19;20421;-68
2023/12/21 06:40:50;;;;;;;;;;;;;;;13.21;92.98;100161.88;7304242;19;20361;-65
2023/12/21 06:43:18;;;;;;;;;;;;;;;13.22;93.14;100168.78;7289433;19;19922;-68
2023/12/21 06:45:47;;;;;;;;;;;;;;;13.25;93.12;100160.50;7294990;19;20896;-67
2023/12/21 06:48:14;;;;;;;;;;;;;;;13.29;93.65;100150.38;7301241;19;19922;-66
2023/12/21 06:50:42;;;;;;;;;;;;;;;13.32;93.48;100167.66;7295258;19;19919;-66
2023/12/21 06:53:15;;;;;;;;;;;;;;;13.34;93.05;100155.91;7295155;19;19934;-67
2023/12/21 06:55:42;;;;;;;;;;;;;;;13.40;92.94;100147.25;7300892;19;22136;-67
2023/12/21 06:58:10;;;;;;;;;;;;;;;13.44;93.00;100148.50;7286596;19;19915;-68
2023/12/21 07:00:37;;;;;;;;;;;;;;;13.44;92.95;100147.69;7270805;19;19922;-67
2023/12/21 07:03:06;;;;;;;;;;;;;;;13.46;92.72;100159.69;7293795;19;19926;-66
2023/12/21 07:05:33;;;;;;;;;;;;;;;13.49;93.00;100161.16;7280603;19;19926;-66
2023/12/21 07:08:00;;;;;;;;;;;;;;;13.49;92.83;100154.03;7284322;19;20765;-67
2023/12/21 07:10:29;;;;;;;;;;;;;;;13.52;92.93;100155.47;7287337;19;20010;-67
2023/12/21 07:12:57;;;;;;;;;;;;;;;13.57;92.89;100156.53;7294135;19;19911;-67
2023/12/21 07:15:24;;;;;;;;;;;;;;;13.57;92.55;100155.72;7296742;19;19919;-66
2023/12/21 07:17:53;;;;;;;;;;;;;;;13.59;93.13;100153.72;7295046;19;19919;-68
2023/12/21 07:20:24;;;;;;;;;;;;;;;13.63;93.18;100154.97;7291505;19;20876;-68
2023/12/21 07:22:51;;;;;;;;;;;;;;;13.67;93.37;100158.88;7284839;19;19955;-67
2023/12/21 07:25:19;;;;;;;;;;;;;;;13.70;93.50;100161.97;7276210;19;19910;-68
2023/12/21 07:27:46;;;;;;;;;;;;;;;13.73;93.19;100174.00;7284437;19;19934;-68
2023/12/21 07:30:14;;;;;;;;;;;;;;;13.76;93.42;100173.63;7290376;19;20531;-68
2023/12/21 07:32:41;;;;;;;;;;;;;;;13.79;93.42;100161.84;7292120;19;19922;-67
2023/12/21 07:35:08;;;;;;;;;;;;;;;13.79;93.37;100152.09;7287200;19;19959;-68
2023/12/21 07:37:35;;;;;;;;;;;;;;;13.79;93.44;100143.31;7288607;19;19923;-68
2023/12/21 07:40:03;;;;;;;;;;;;;;;13.81;93.51;100147.44;7296539;19;19919;-67
2023/12/21 07:42:30;;;;;;;;;;;;;;;13.80;93.65;100143.16;7300060;19;19961;-67
2023/12/21 07:44:57;;;;;;;;;;;;;;;13.82;94.05;100133.19;7287386;19;19923;-69
2023/12/21 07:47:24;;;;;;;;;;;;;;;13.86;94.23;100150.31;7299906;19;19923;-68
2023/12/21 07:49:51;;;;;;;;;;;;;;;13.88;93.80;100131.59;7293907;19;20013;-68
2023/12/21 07:52:19;;;;;;;;;;;;;;;13.91;94.30;100144.47;7299605;19;19950;-68
2023/12/21 07:54:46;;;;;;;;;;;;;;;13.91;95.36;100125.94;7305016;19;20330;-68
2023/12/21 07:57:14;;;;;;;;;;;;;;;13.88;95.24;100136.88;7316259;19;19938;-67
2023/12/21 07:59:41;;;;;;;;;;;;;;;13.87;95.71;100114.91;7293689;19;20042;-67
2023/12/21 08:02:08;;;;;;;;;;;;;;;13.83;96.03;100116.31;7311211;19;19923;-67
2023/12/21 08:04:35;;;;;;;;;;;;;;;13.84;96.41;100144.41;7306398;19;19919;-68
2023/12/21 08:07:02;;;;;;;;;;;;;;;13.83;96.77;100137.47;7288018;19;19930;-68
2023/12/21 08:09:29;;;;;;;;;;;;;;;13.77;96.73;100135.56;7292947;19;19964;-68
2023/12/21 08:11:55;;;;;;;;;;;;;;;13.78;97.04;100137.22;7290980;19;20442;-67
2023/12/21 08:14:26;;;;;;;;;;;;;;;13.77;97.47;100140.03;7297347;19;21020;-68
2023/12/21 08:16:53;;;;;;;;;;;;;;;13.79;98.03;100130.09;7283354;19;21271;-67
2023/12/21 08:19:21;;;;;;;;;;;;;;;13.79;98.11;100120.34;7287784;19;20018;-68
2023/12/21 08:21:48;;;;;;;;;;;;;;;13.77;97.71;100111.78;7307103;19;20133;-68
2023/12/21 08:24:14;;;;;;;;;;;;;;;13.76;98.13;100112.00;7302077;19;19922;-68
2023/12/21 08:26:41;;;;;;;;;;;;;;;13.76;98.64;100112.81;7277757;19;19930;-67
2023/12/21 08:29:08;;;;;;;;;;;;;;;13.78;98.33;100109.94;7293795;19;21063;-67
2023/12/21 08:31:42;;;;;;;;;;;;;;;13.73;98.26;100102.59;7300499;19;19918;-68
2023/12/21 08:34:11;;;;;;;;;;;;;;;13.74;98.24;100096.31;7302409;19;19957;-67
2023/12/21 08:36:38;;;;;;;;;;;;;;;13.73;98.36;100097.31;7280978;19;20871;-67
2023/12/21 08:39:08;;;;;;;;;;;;;;;13.74;98.33;100100.78;7296629;19;19945;-67
2023/12/21 08:41:36;;;;;;;;;;;;;;;13.77;98.51;100110.97;7295435;19;20346;-68
2023/12/21 08:44:03;;;;;;;;;;;;;;;13.77;98.88;100103.03;7304452;19;19915;-68
2023/12/21 08:46:29;;;;;;;;;;;;;;;13.75;98.52;100102.41;7296534;19;19922;-67
2023/12/21 08:48:57;;;;;;;;;;;;;;;13.76;98.48;100102.22;7291635;19;19914;-67
2023/12/21 08:51:24;;;;;;;;;;;;;;;13.78;98.78;100108.13;7298303;19;19986;-67
2023/12/21 08:53:51;;;;;;;;;;;;;;;13.80;98.80;100100.84;7293094;19;21810;-68
2023/12/21 08:56:18;;;;;;;;;;;;;;;13.81;98.63;100114.88;7291656;19;20270;-67
2023/12/21 08:58:45;;;;;;;;;;;;;;;13.83;98.45;100134.00;7293016;19;20113;-67
2023/12/21 09:01:15;;;;;;;;;;;;;;;13.83;98.24;100110.19;7287633;19;19922;-67
2023/12/21 09:03:43;;;;;;;;;;;;;;;13.80;97.97;100126.47;7279441;19;19951;-68
2023/12/21 09:06:10;;;;;;;;;;;;;;;13.83;98.14;100126.06;7293392;19;19918;-67
2023/12/21 09:08:37;;;;;;;;;;;;;;;13.82;97.94;100121.78;7287028;19;19919;-67
2023/12/21 09:11:08;;;;;;;;;;;;;;;13.81;97.84;100123.63;7277536;19;20677;-67
2023/12/21 09:13:34;;;;;;;;;;;;;;;13.83;97.99;100126.88;7288212;19;20809;-68
2023/12/21 09:16:01;;;;;;;;;;;;;;;13.87;97.98;100114.91;7284266;19;19947;-68
2023/12/21 09:18:28;;;;;;;;;;;;;;;13.90;98.09;100127.75;7285269;19;19927;-68
2023/12/21 09:20:56;;;;;;;;;;;;;;;13.94;97.51;100133.47;7291923;19;19940;-69
2023/12/21 09:23:23;;;;;;;;;;;;;;;13.95;97.18;100114.78;7300722;19;19919;-69
2023/12/21 09:25:49;;;;;;;;;;;;;;;13.96;97.45;100112.97;7293644;19;20147;-69
2023/12/21 09:28:18;;;;;;;;;;;;;;;13.96;96.99;100121.72;7296516;19;19918;-68
2023/12/21 09:30:46;;;;;;;;;;;;;;;13.98;96.94;100109.09;7289080;19;20010;-70
2023/12/21 09:33:13;;;;;;;;;;;;;;;13.99;96.48;100123.16;7283606;19;19927;-67
2023/12/21 09:35:39;;;;;;;;;;;;;;;14.03;96.52;100134.97;7278066;19;20845;-68
2023/12/21 09:38:08;;;;;;;;;;;;;;;14.02;96.11;100143.91;7286665;19;20535;-68
2023/12/21 09:40:37;;;;;;;;;;;;;;;14.03;95.80;100140.25;7298251;19;19919;-68
2023/12/21 09:43:06;;;;;;;;;;;;;;;14.03;95.60;100149.03;7292800;19;19930;-70
2023/12/21 09:45:41;;;;;;;;;;;;;;;14.07;95.71;100152.09;7275127;19;19938;-68
2023/12/21 09:48:09;;;;;;;;;;;;;;;14.11;96.13;100170.06;7285485;19;19927;-68
2023/12/21 09:50:36;;;;;;;;;;;;;;;14.10;96.55;100159.66;7301400;19;19925;-69
2023/12/21 09:53:04;;;;;;;;;;;;;;;14.13;96.48;100161.91;7295263;19;19958;-68
2023/12/21 09:55:31;;;;;;;;;;;;;;;14.17;96.84;100170.31;7288793;19;21612;-68
2023/12/21 09:57:59;;;;;;;;;;;;;;;14.16;96.94;100176.59;7295448;19;19929;-68
2023/12/21 10:00:26;;;;;;;;;;;;;;;14.16;96.99;100187.19;7286051;19;20249;-69
2023/12/21 10:02:53;;;;;;;;;;;;;;;14.11;97.40;100190.41;7301433;19;19918;-66
2023/12/21 10:05:20;;;;;;;;;;;;;;;14.10;97.43;100183.47;7287515;19;19919;-67
2023/12/21 10:07:46;;;;;;;;;;;;;;;14.10;97.57;100186.94;7285326;19;19923;-68
2023/12/21 10:10:14;;;;;;;;;;;;;;;14.11;97.59;100182.47;7296866;19;19934;-70
2023/12/21 10:12:42;;;;;;;;;;;;;;;14.11;97.42;100172.69;7288611;19;19994;-70
2023/12/21 10:15:10;;;;;;;;;;;;;;;14.13;97.20;100173.31;7292695;19;19919;-70
2023/12/21 10:17:38;;;;;;;;;;;;;;;14.15;96.23;100151.97;7298973;19;19922;-70
2023/12/21 10:20:05;;;;;;;;;;;;;;;14.19;95.49;100157.69;7297487;19;19958;-70
2023/12/21 10:22:34;;;;;;;;;;;;;;;14.18;95.30;100156.84;7289358;19;20018;-70
2023/12/21 10:25:01;;;;;;;;;;;;;;;14.21;95.58;100150.38;7300762;19;19930;-69
2023/12/21 10:27:29;;;;;;;;;;;;;;;14.19;95.24;100155.03;7289993;19;19926;-71
2023/12/21 10:29:58;;;;;;;;;;;;;;;14.21;94.38;100151.19;7296689;19;19923;-70
2023/12/21 10:32:25;;;;;;;;;;;;;;;14.21;94.34;100143.25;7300508;19;20652;-70
2023/12/21 10:34:58;;;;;;;;;;;;;;;14.25;93.93;100146.31;7291536;19;19986;-70
2023/12/21 10:37:25;;;;;;;;;;;;;;;14.26;93.73;100138.19;7277866;19;20552;-69
2023/12/21 10:39:53;;;;;;;;;;;;;;;14.28;93.53;100149.41;7282243;19;19926;-70
2023/12/21 10:42:20;;;;;;;;;;;;;;;14.28;93.14;100152.03;7278199;19;19923;-71
2023/12/21 10:44:47;;;;;;;;;;;;;;;14.29;93.21;100145.75;7295304;19;19922;-71
2023/12/21 10:47:16;;;;;;;;;;;;;;;14.32;92.81;100160.44;7287657;19;20191;-70
2023/12/21 10:49:44;;;;;;;;;;;;;;;14.28;92.72;100144.09;7293869;19;19938;-69
2023/12/21 10:52:15;;;;;;;;;;;;;;;14.34;92.44;100140.69;7283712;19;20333;-70
2023/12/21 10:54:42;;;;;;;;;;;;;;;14.35;92.84;100137.03;7273662;19;21081;-69
2023/12/21 10:57:09;;;;;;;;;;;;;;;14.39;92.33;100132.19;7277944;19;19947;-70
2023/12/21 10:59:37;;;;;;;;;;;;;;;14.44;90.92;100137.72;7302404;19;19922;-69
2023/12/21 11:02:04;;;;;;;;;;;;;;;14.48;90.31;100126.53;7288296;19;20585;-70
2023/12/21 11:04:31;;;;;;;;;;;;;;;14.52;89.23;100135.75;7295187;19;20023;-70
2023/12/21 11:06:59;;;;;;;;;;;;;;;14.59;88.69;100122.53;7285349;19;20353;-70
2023/12/21 11:09:31;;;;;;;;;;;;;;;14.62;87.30;100121.34;7300916;19;20054;-70
2023/12/21 11:11:58;;;;;;;;;;;;;;;14.68;86.51;100110.75;7298644;19;21255;-70
2023/12/21 11:14:25;;;;;;;;;;;;;;;14.67;84.93;100116.25;7295044;19;20531;-71
2023/12/21 11:16:54;;;;;;;;;;;;;;;14.71;84.01;100122.78;7299878;19;19922;-70
2023/12/21 11:19:35;;;;;;;;;;;;;;;14.72;83.32;100122.59;7280401;19;19937;-71
2023/12/21 11:22:04;;;;;;;;;;;;;;;14.74;83.00;100130.34;7276486;19;20109;-71
2023/12/21 11:24:30;;;;;;;;;;;;;;;14.75;82.90;100124.03;7288472;19;19923;-70
2023/12/21 11:26:59;;;;;;;;;;;;;;;14.78;82.81;100136.91;7290415;19;20002;-70
2023/12/21 11:29:36;;;;;;;;;;;;;;;14.82;81.97;100128.34;7308491;19;19925;-69
2023/12/21 11:32:06;;;;;;;;;;;;;;;14.86;81.80;100120.81;7293869;19;20302;-70
2023/12/21 11:34:39;;;;;;;;;;;;;;;14.87;81.36;100110.03;7307373;19;19919;-69
2023/12/21 11:37:26;;;;;;;;;;;;;;;14.90;80.52;100117.56;7301453;19;19926;-69
2023/12/21 11:39:59;;;;;;;;;;;;;;;14.94;80.08;100125.94;7305752;19;20363;-69
2023/12/21 11:42:36;;;;;;;;;;;;;;;14.94;79.81;100126.75;7310558;19;20831;-70
2023/12/21 11:45:04;;;;;;;;;;;;;;;14.95;80.01;100128.38;7315230;19;19947;-71
2023/12/21 11:47:31;;;;;;;;;;;;;;;14.96;80.14;100134.50;7309980;19;19986;-71
2023/12/21 11:50:17;;;;;;;;;;;;;;;14.97;79.66;100136.16;7292861;19;19955;-70
2023/12/21 11:52:45;;;;;;;;;;;;;;;14.97;78.99;100160.00;7288924;19;19914;-70
2023/12/21 11:55:24;;;;;;;;;;;;;;;14.97;79.84;100144.09;7305823;19;19915;-69
2023/12/21 11:58:11;;;;;;;;;;;;;;;14.94;78.87;100155.06;7315718;19;19918;-71
2023/12/21 12:00:43;;;;;;;;;;;;;;;15.00;79.04;100159.59;7300495;19;19963;-69
2023/12/21 12:03:11;;;;;;;;;;;;;;;15.01;78.62;100165.72;7298865;19;20512;-69
2023/12/21 12:05:38;;;;;;;;;;;;;;;14.98;77.65;100159.78;7302004;19;20946;-70
2023/12/21 12:08:05;;;;;;;;;;;;;;;15.03;77.14;100169.81;7296410;19;19915;-71
2023/12/21 12:10:32;;;;;;;;;;;;;;;15.04;76.70;100152.88;7286203;19;19926;-70
2023/12/21 12:13:00;;;;;;;;;;;;;;;15.08;75.75;100159.44;7295266;19;19929;-68
2023/12/21 12:15:28;;;;;;;;;;;;;;;15.12;75.41;100158.00;7293583;19;19922;-70
2023/12/21 12:17:54;;;;;;;;;;;;;;;15.19;75.00;100165.97;7289019;19;19930;-70
2023/12/21 12:20:23;;;;;;;;;;;;;;;15.20;73.78;100164.94;7291455;19;19910;-69
2023/12/21 12:22:52;;;;;;;;;;;;;;;15.21;73.12;100156.81;7300181;19;19918;-70
2023/12/21 12:25:19;;;;;;;;;;;;;;;15.24;73.36;100156.41;7283538;19;20023;-69
2023/12/21 12:27:47;;;;;;;;;;;;;;;15.26;74.20;100148.25;7284848;19;19930;-70
2023/12/21 12:30:18;;;;;;;;;;;;;;;15.27;74.45;100156.03;7294103;19;20407;-70
2023/12/21 12:32:45;;;;;;;;;;;;;;;15.26;74.52;100162.34;7298016;19;19922;-71
2023/12/21 12:35:13;;;;;;;;;;;;;;;15.27;74.70;100184.34;7290183;19;19974;-69
2023/12/21 12:37:40;;;;;;;;;;;;;;;15.24;74.54;100155.59;7294981;19;19923;-70
2023/12/21 12:40:07;;;;;;;;;;;;;;;15.23;73.84;100178.66;7294246;19;20787;-69